Terminal Aerodrome Forecast
Issued by NWS Boise, ID

Home | Current Version | Previous Version | Text Only | Print | Product List | Glossary On
Versions: 1 2 3 4 5 6 7 8 9 10 11 12 13
000
FTUS45 KBOI 170520
TAFBNO
TAF
KBNO 170520Z 1706/1806 VRB05KT P6SM BKN100
     FM172100 24008KT P6SM VCSH OVC080
     FM180000 28013G23KT P6SM -SHRA OVC050=

USA.gov is the U.S. government's official web portal to all federal, state and local government web resources and services.